Paradise Logo Paradise Logo
Schedule Standings Team Stats Stats Want to Join?
2016 Statistics
Name Chris Power
Team Brew Jays


Game By Game
Opponent Date Time Result Order PA AB Runs Hits 1B 2B 3B HR BB Sac RBI Avg
The Duke 5/31/2016 09:30 0-7(W) 0 0 0 0 0 0 0 0 0 0 0 0 .000
Cowboys 6/12/2016 05:00 3-12(L) 5 3 3 0 0 0 0 0 0 0 0 0 .000
The Duke 6/15/2016 09:30 20-8(W) 10 4 4 2 3 3 0 0 0 0 0 0 .429
Hickey's Timber Mart 6/19/2016 07:30 12-21(L) 8 3 3 2 2 1 1 0 0 0 0 0 .500
Freshwater Auto Center 6/22/2016 09:30 2-17(L) 2 3 3 0 2 1 1 0 0 0 0 0 .538
Premium Paving Ltd 6/26/2016 06:15 13-12(W) 7 4 4 2 2 1 0 0 1 0 0 0 .529
Freshwater Auto Center 6/28/2016 09:30 19-3(L) 5 3 3 0 0 0 0 0 0 0 0 0 .450
Cowboys 7/10/2016 08:45 14-23(L) 6 4 4 2 2 2 0 0 0 0 0 0 .458
Premium Paving Ltd 7/17/2016 07:30 11-8(L) 2 4 4 1 3 2 1 0 0 0 0 0 .500
Freshwater Auto Center 7/17/2016 08:45 15-18(W) 2 5 4 1 2 2 0 0 0 1 0 0 .500
Hickey's Timber Mart 7/24/2016 08:00 13-15(W) 8 3 3 1 1 1 0 0 0 0 0 0 .486
Premium Paving Ltd 7/26/2016 09:30 17-7(L) 7 3 3 1 1 1 0 0 0 0 0 0 .474
The Duke 8/14/2016 08:45 3-17(L) 5 2 2 0 2 1 1 0 0 0 0 0 .500
Premium Paving Ltd 8/16/2016 09:30 10-22(L) 2 3 3 1 3 1 2 0 0 0 0 0 .535
Hickey's Timber Mart 8/17/2016 09:30 16-15(W) 2 4 4 2 2 2 0 0 0 0 0 0 .532
The Duke 8/21/2016 06:15 16-17(W) 2 5 5 3 5 5 0 0 0 0 0 0 .577
Freshwater Auto Center 8/21/2016 07:30 11-16(L) 2 4 4 2 3 2 1 0 0 0 0 0 .589
Cowboys 9/6/2016 09:30 22-15(L) 2 4 4 1 2 1 0 1 0 0 0 .583
Hickey's Timber Mart 9/11/2016 05:00 19-14(L) 2 4 4 2 2 2 0 0 0 0 0 .578
The Duke 9/11/2016 06:15 19-13(L) 1 5 5 2 3 2 1 0 0 0 0 .580
Cowboys 9/13/2016 09:30 20-6(L) 2 2 2 0 0 0 0 0 0 0 0 .563


Season Totals
Season Gm PA AB Runs Hits 1B 2B 3B HR BB Sac RBI Avg Obp Slg
2021 16 70 67 29 42 32 8 1 1 2 1 26 .627 .629 .821
2020 15 69 69 31 43 40 3 0 0 0 0 29 .623 .623 .667
2019 13 54 53 21 33 25 5 3 0 1 0 21 .623 .630 .830
2018 14 59 56 27 42 34 5 2 1 1 2 27 .750 .729 .964
2017 18 79 77 34 56 48 7 1 0 2 0 .727 .734 .844
2016 21 72 71 25 40 30 8 1 1 1 0 0 .563 .569 .746
2015 18 64 60 19 33 27 4 2 0 3 1 0 .550 .563 .683
2014 14 54 52 14 33 30 2 1 0 1 0 0 .635 .630 .712
2013 8 34 32 10 19 12 6 1 0 0 2 0 .594 .559 .844
2012 21 88 86 31 47 35 9 3 0 0 2 0 .547 .534 .721
2011 19 75 70 31 37 28 8 1 0 4 1 0 .529 .547 .671